Time;durP1;ratioP1;P1;durP2;ratioP2;P2;SDS_P1;SDS_P2;PMS_P1;PMS_P2;Temp;Humidity;BMP_temperature;BMP_pressure;BME280_temperature;BME280_humidity;BME280_pressure;Samples;Min_cycle;Max_cycle;Signal;HPM_P1;HPM_P2
2023/02/01 05:31:20;;;;;;;4.13;1.75;;;10.00;72.10;;;;;;5479346;23;20059;-87
2023/02/01 05:33:45;;;;;;;4.80;1.73;;;10.00;72.30;;;;;;4937337;29;20044;-86
2023/02/01 05:36:11;;;;;;;9.68;2.63;;;9.90;72.40;;;;;;4928169;29;20032;-86
2023/02/01 05:38:37;;;;;;;7.38;2.00;;;9.90;72.30;;;;;;4943631;29;20050;-87
2023/02/01 05:41:02;;;;;;;8.73;2.63;;;10.00;72.40;;;;;;4927372;29;20106;-86
2023/02/01 05:43:28;;;;;;;12.43;2.38;;;10.00;72.10;;;;;;4920406;29;20123;-86
2023/02/01 05:45:54;;;;;;;10.90;2.08;;;10.00;71.80;;;;;;4926685;29;20032;-88
2023/02/01 05:48:19;;;;;;;7.72;2.22;;;10.00;71.80;;;;;;4921819;29;20539;-86
2023/02/01 05:50:45;;;;;;;10.18;2.60;;;10.00;71.70;;;;;;4926179;29;20039;-89
2023/02/01 05:53:11;;;;;;;4.40;2.58;;;10.00;71.70;;;;;;4939452;29;20438;-83
2023/02/01 05:55:38;;;;;;;8.93;2.80;;;10.00;71.60;;;;;;4935050;29;20034;-85
2023/02/01 05:58:04;;;;;;;7.75;2.05;;;10.00;71.20;;;;;;4940277;29;20487;-78
2023/02/01 06:00:50;;;;;;;12.05;2.53;;;10.00;71.60;;;;;;4923039;29;20035;-81
2023/02/01 06:03:17;;;;;;;5.60;2.80;;;10.00;71.20;;;;;;4929176;29;20067;-80
2023/02/01 06:05:46;;;;;;;8.15;2.33;;;10.00;71.60;;;;;;4920392;29;20067;-84
2023/02/01 06:08:13;;;;;;;9.10;2.50;;;10.00;71.30;;;;;;4942933;29;20043;-83
2023/02/01 06:10:38;;;;;;;11.02;2.45;;;10.00;71.00;;;;;;4940893;29;20455;-84
2023/02/01 06:13:04;;;;;;;5.75;2.05;;;10.00;71.40;;;;;;4939467;29;20032;-82
2023/02/01 06:15:31;;;;;;;7.03;2.58;;;10.00;71.50;;;;;;4943558;29;20146;-74
2023/02/01 06:17:59;;;;;;;6.13;2.00;;;10.00;71.30;;;;;;4936865;29;20451;-77
2023/02/01 06:20:25;;;;;;;4.53;2.30;;;10.00;71.10;;;;;;4923315;29;20050;-77
2023/02/01 06:22:52;;;;;;;12.90;2.30;;;10.10;71.40;;;;;;4934089;29;20025;-79
2023/02/01 06:25:19;;;;;;;9.38;2.85;;;10.10;71.20;;;;;;4921343;29;20020;-75
2023/02/01 06:27:45;;;;;;;11.65;2.50;;;10.10;71.20;;;;;;4921139;29;20043;-78
2023/02/01 06:30:15;;;;;;;15.13;2.35;;;10.00;70.80;;;;;;4913572;29;20039;-78
2023/02/01 06:32:41;;;;;;;13.77;2.78;;;10.00;71.20;;;;;;4944782;29;20046;-79
2023/02/01 06:35:11;;;;;;;6.60;2.35;;;10.00;71.70;;;;;;4955445;29;20031;-79
2023/02/01 06:37:37;;;;;;;10.00;2.57;;;10.00;71.60;;;;;;4932386;29;20028;-79
2023/02/01 06:40:04;;;;;;;9.15;2.03;;;10.00;71.70;;;;;;4939002;29;20064;-79
2023/02/01 06:42:29;;;;;;;7.95;2.17;;;10.00;71.90;;;;;;4926228;29;20035;-79
2023/02/01 06:44:55;;;;;;;10.30;1.88;;;10.00;72.10;;;;;;4928811;29;20510;-79
2023/02/01 06:47:21;;;;;;;10.73;2.72;;;9.90;72.20;;;;;;4948155;29;20031;-82
2023/02/01 06:49:46;;;;;;;8.55;2.22;;;9.90;72.40;;;;;;4947477;29;20024;-85
2023/02/01 06:52:12;;;;;;;9.07;2.33;;;9.90;72.30;;;;;;4905642;29;20036;-85
2023/02/01 06:54:38;;;;;;;11.75;2.90;;;9.90;72.10;;;;;;4923972;29;20527;-85
2023/02/01 06:57:03;;;;;;;10.60;2.85;;;9.90;72.20;;;;;;4919042;29;20558;-85
2023/02/01 06:59:29;;;;;;;5.38;2.35;;;9.90;72.20;;;;;;4922094;29;20118;-86
2023/02/01 07:01:55;;;;;;;9.50;2.88;;;9.90;72.30;;;;;;4918477;29;20055;-86
2023/02/01 07:04:20;;;;;;;7.07;2.63;;;9.80;72.60;;;;;;4912512;29;20024;-85
2023/02/01 07:06:46;;;;;;;7.38;2.75;;;9.90;72.80;;;;;;4920973;29;20479;-81
2023/02/01 07:09:13;;;;;;;8.38;2.25;;;9.90;72.20;;;;;;4906134;29;20061;-86
2023/02/01 07:11:42;;;;;;;6.95;2.40;;;9.90;72.50;;;;;;4917966;29;20042;-86
2023/02/01 07:14:09;;;;;;;11.60;2.77;;;9.90;72.60;;;;;;4922998;29;20031;-86
2023/02/01 07:16:35;;;;;;;7.20;2.20;;;9.90;72.40;;;;;;4942014;29;20038;-86
2023/02/01 07:19:01;;;;;;;7.53;3.15;;;9.90;72.40;;;;;;4922446;29;20031;-86
2023/02/01 07:21:27;;;;;;;15.60;2.97;;;9.90;72.40;;;;;;4925234;29;20024;-87
2023/02/01 07:23:54;;;;;;;7.55;2.47;;;9.90;72.70;;;;;;4937831;29;20482;-86
2023/02/01 07:26:22;;;;;;;7.80;2.53;;;9.90;72.80;;;;;;4921701;29;20021;-87
2023/02/01 07:28:48;;;;;;;11.07;2.38;;;9.90;72.80;;;;;;4919732;29;20079;-87
2023/02/01 07:31:18;;;;;;;7.70;2.45;;;9.90;72.90;;;;;;4921952;29;20071;-87
2023/02/01 07:33:44;;;;;;;9.30;2.42;;;9.90;72.60;;;;;;4920531;29;20032;-86
2023/02/01 07:36:12;;;;;;;14.82;3.38;;;9.90;73.20;;;;;;4903777;29;20115;-86
2023/02/01 07:38:38;;;;;;;9.55;2.83;;;9.80;72.80;;;;;;4905821;29;20024;-86
2023/02/01 07:41:06;;;;;;;6.45;2.90;;;9.80;72.80;;;;;;4914357;29;20154;-87
2023/02/01 07:43:37;;;;;;;6.30;2.13;;;9.80;73.00;;;;;;4905954;29;20040;-86
2023/02/01 07:46:05;;;;;;;6.15;2.30;;;9.80;73.40;;;;;;4920244;29;20103;-87
2023/02/01 07:48:32;;;;;;;9.05;2.33;;;9.80;73.40;;;;;;4904003;29;20094;-86
2023/02/01 07:51:06;;;;;;;5.63;2.45;;;9.70;73.50;;;;;;4904863;29;20040;-86
2023/02/01 07:53:33;;;;;;;6.78;2.90;;;9.80;73.00;;;;;;4903638;29;20127;-86
2023/02/01 07:55:59;;;;;;;8.60;2.80;;;9.80;73.20;;;;;;4933534;29;20391;-86
2023/02/01 07:58:25;;;;;;;6.70;2.53;;;9.80;73.10;;;;;;4920919;29;20039;-86
2023/02/01 08:03:37;;;;;;;9.18;2.65;;;9.80;73.30;;;;;;4920988;29;20047;-86
2023/02/01 08:06:03;;;;;;;16.92;3.38;;;9.90;73.10;;;;;;4903644;29;20115;-86
2023/02/01 08:08:28;;;;;;;12.27;3.08;;;9.90;72.90;;;;;;4918835;29;20067;-86
2023/02/01 08:11:02;;;;;;;12.30;2.50;;;9.90;73.10;;;;;;4926456;29;20027;-86
2023/02/01 08:13:28;;;;;;;9.55;2.67;;;9.90;73.10;;;;;;4938987;29;20122;-87
2023/02/01 08:16:02;;;;;;;11.77;2.88;;;9.90;73.00;;;;;;4938795;29;20107;-87
2023/02/01 08:18:29;;;;;;;10.15;3.13;;;9.90;73.10;;;;;;4926248;29;20459;-86
2023/02/01 08:20:54;;;;;;;6.47;2.65;;;10.00;72.80;;;;;;4902801;29;20462;-87
2023/02/01 08:23:21;;;;;;;10.25;2.60;;;10.00;72.70;;;;;;4919718;29;20028;-86
2023/02/01 08:25:47;;;;;;;6.95;2.83;;;10.00;72.80;;;;;;4902244;29;20119;-87
2023/02/01 08:28:13;;;;;;;13.98;2.45;;;10.00;73.10;;;;;;4918580;29;20063;-87
2023/02/01 08:30:41;;;;;;;11.38;2.80;;;10.00;73.10;;;;;;4918556;29;20048;-87
2023/02/01 08:33:07;;;;;;;8.35;2.80;;;10.00;73.10;;;;;;4938496;29;20031;-87
2023/02/01 08:35:35;;;;;;;15.55;3.25;;;10.00;73.20;;;;;;4917771;29;20100;-86
2023/02/01 08:38:02;;;;;;;9.10;2.95;;;10.00;72.90;;;;;;4903623;29;20154;-87
2023/02/01 08:40:27;;;;;;;14.48;3.80;;;10.00;73.10;;;;;;4921082;29;20082;-87
2023/02/01 08:42:54;;;;;;;13.57;3.40;;;10.00;72.70;;;;;;4939261;29;20027;-88
2023/02/01 08:45:26;;;;;;;18.20;2.92;;;10.10;72.40;;;;;;4918330;29;20035;-89
2023/02/01 08:47:52;;;;;;;13.57;3.20;;;10.20;72.30;;;;;;4938463;29;20020;-87
2023/02/01 08:50:19;;;;;;;9.20;3.70;;;10.30;72.20;;;;;;4933160;29;20507;-88
2023/02/01 08:52:45;;;;;;;7.00;3.70;;;10.30;71.80;;;;;;4906992;29;20064;-89
2023/02/01 08:55:11;;;;;;;18.55;4.13;;;10.30;71.60;;;;;;4906834;29;20035;-86
2023/02/01 08:57:38;;;;;;;14.30;3.83;;;10.40;71.30;;;;;;4923625;29;20035;-87
2023/02/01 09:00:06;;;;;;;10.88;3.05;;;10.50;71.40;;;;;;4906625;29;20155;-87
2023/02/01 09:02:32;;;;;;;12.27;3.97;;;10.50;71.20;;;;;;4934036;29;20554;-87
2023/02/01 09:04:57;;;;;;;9.98;2.95;;;10.50;71.10;;;;;;4906148;29;20028;-87
2023/02/01 09:07:23;;;;;;;11.20;2.83;;;10.60;70.60;;;;;;4922981;29;20039;-87
2023/02/01 09:09:49;;;;;;;14.57;3.83;;;10.60;70.80;;;;;;4923166;29;20064;-87
2023/02/01 09:12:14;;;;;;;11.65;3.33;;;10.60;70.70;;;;;;4924926;29;20046;-86
2023/02/01 09:14:40;;;;;;;10.07;3.05;;;10.60;70.80;;;;;;4925570;29;20116;-87
2023/02/01 09:17:06;;;;;;;5.97;2.28;;;10.60;70.20;;;;;;4922994;29;20062;-87
2023/02/01 09:19:32;;;;;;;13.80;2.90;;;10.60;70.50;;;;;;4922709;29;20039;-87
2023/02/01 09:21:58;;;;;;;13.55;2.70;;;10.60;70.70;;;;;;4936322;29;20123;-86
2023/02/01 09:24:24;;;;;;;11.95;2.78;;;10.60;70.30;;;;;;4925385;29;20110;-87
2023/02/01 09:26:49;;;;;;;12.27;2.72;;;10.60;70.70;;;;;;4925592;29;20055;-87
2023/02/01 09:29:15;;;;;;;10.23;3.00;;;10.60;70.80;;;;;;4921325;29;20047;-86
2023/02/01 09:31:41;;;;;;;7.55;3.00;;;10.60;70.40;;;;;;4914296;29;20051;-86
2023/02/01 09:34:07;;;;;;;14.02;3.55;;;10.60;70.60;;;;;;4920862;29;20036;-87
2023/02/01 09:36:33;;;;;;;11.73;3.17;;;10.60;70.70;;;;;;4906222;29;20040;-86
2023/02/01 09:38:59;;;;;;;11.25;3.20;;;10.70;70.50;;;;;;4920637;29;20095;-86
2023/02/01 09:41:41;;;;;;;17.67;3.13;;;10.60;70.10;;;;;;4905995;29;20036;-86
2023/02/01 09:44:35;;;;;;;15.73;4.20;;;10.70;70.70;;;;;;4922816;29;20064;-87
2023/02/01 09:47:01;;;;;;;13.55;2.95;;;10.70;70.60;;;;;;4905528;29;20043;-88
2023/02/01 09:49:32;;;;;;;12.20;3.03;;;10.80;70.20;;;;;;4915649;29;20028;-86
2023/02/01 09:52:00;;;;;;;11.95;4.03;;;10.80;70.20;;;;;;4922527;29;20036;-86
2023/02/01 09:54:35;;;;;;;13.60;4.10;;;10.80;70.20;;;;;;4924161;29;20031;-87
2023/02/01 09:57:13;;;;;;;14.02;3.85;;;10.80;70.00;;;;;;4923617;29;20043;-86
2023/02/01 09:59:46;;;;;;;18.60;3.15;;;10.80;70.10;;;;;;4905130;29;20090;-87
2023/02/01 10:02:21;;;;;;;12.05;3.65;;;10.90;69.90;;;;;;4921248;29;20039;-87
2023/02/01 10:04:47;;;;;;;9.15;3.35;;;10.90;69.50;;;;;;4923974;29;20031;-88
2023/02/01 10:07:45;;;;;;;6.45;2.75;;;10.90;68.90;;;;;;4923714;29;20047;-87
2023/02/01 10:10:20;;;;;;;8.85;2.83;;;11.00;69.90;;;;;;4923773;29;20028;-88
2023/02/01 10:12:57;;;;;;;7.30;3.42;;;11.00;69.20;;;;;;4941359;29;20071;-88
2023/02/01 10:15:55;;;;;;;14.15;3.28;;;11.10;69.10;;;;;;4921058;29;20494;-87
2023/02/01 10:18:36;;;;;;;12.13;3.40;;;11.10;69.00;;;;;;4885679;29;20050;-88
2023/02/01 10:21:05;;;;;;;14.40;3.58;;;11.20;68.80;;;;;;4922081;29;20064;-88
2023/02/01 10:24:01;;;;;;;12.07;3.20;;;11.30;68.60;;;;;;4905202;29;20039;-87
2023/02/01 10:26:33;;;;;;;10.73;3.05;;;11.50;68.50;;;;;;4922601;29;20387;-87
2023/02/01 10:29:01;;;;;;;13.70;3.97;;;11.50;68.50;;;;;;4905843;29;20562;-87
2023/02/01 10:31:31;;;;;;;18.02;3.75;;;11.50;67.60;;;;;;4916759;29;20091;-87
2023/02/01 10:34:00;;;;;;;11.38;3.00;;;11.50;67.70;;;;;;4943196;29;20519;-88
2023/02/01 10:36:35;;;;;;;9.25;3.15;;;11.50;67.30;;;;;;4919877;29;20032;-87
2023/02/01 10:39:04;;;;;;;8.80;2.83;;;11.40;67.40;;;;;;4906414;29;20044;-87
2023/02/01 10:41:34;;;;;;;16.15;3.17;;;11.40;67.50;;;;;;4904533;29;20038;-88
2023/02/01 10:44:04;;;;;;;6.47;2.63;;;11.50;67.10;;;;;;4912806;29;20031;-88
2023/02/01 10:46:30;;;;;;;11.20;3.33;;;11.50;67.20;;;;;;4922950;29;20082;-87
2023/02/01 10:49:00;;;;;;;9.60;3.47;;;11.60;67.30;;;;;;4940560;29;20028;-87
2023/02/01 10:51:54;;;;;;;14.07;4.45;;;11.60;66.80;;;;;;4940452;29;20047;-87
2023/02/01 10:54:38;;;;;;;12.90;2.97;;;11.60;67.00;;;;;;4919275;29;20043;-86
2023/02/01 10:57:11;;;;;;;12.60;4.00;;;11.60;67.40;;;;;;4923352;29;20107;-87
2023/02/01 10:59:38;;;;;;;9.80;3.33;;;11.60;66.60;;;;;;4918974;29;20040;-87
2023/02/01 11:02:28;;;;;;;11.35;3.47;;;11.50;66.80;;;;;;4919262;29;20026;-87
2023/02/01 11:05:09;;;;;;;12.18;2.97;;;11.50;67.40;;;;;;4923639;29;20054;-86
2023/02/01 11:07:36;;;;;;;7.60;3.42;;;11.50;67.20;;;;;;4920627;29;20019;-87
2023/02/01 11:10:02;;;;;;;9.68;2.70;;;11.50;67.30;;;;;;4904581;29;20056;-87
2023/02/01 11:12:32;;;;;;;10.48;2.80;;;11.50;67.20;;;;;;4922963;29;20027;-88
2023/02/01 11:15:22;;;;;;;9.65;3.03;;;11.60;67.40;;;;;;4940301;29;20455;-88
2023/02/01 11:17:56;;;;;;;10.18;3.13;;;11.60;67.50;;;;;;4910026;29;20032;-88
2023/02/01 11:20:42;;;;;;;19.02;3.13;;;11.70;67.60;;;;;;4921878;29;20028;-88
2023/02/01 11:23:21;;;;;;;8.20;2.85;;;11.80;67.30;;;;;;4903746;29;20030;-87
2023/02/01 11:26:10;;;;;;;13.50;2.80;;;11.80;67.20;;;;;;4904329;29;20071;-87
2023/02/01 11:28:39;;;;;;;7.18;2.83;;;11.90;67.20;;;;;;4907293;29;20076;-87
2023/02/01 11:31:09;;;;;;;9.15;2.90;;;12.00;66.20;;;;;;4906980;29;20059;-87
2023/02/01 11:33:37;;;;;;;7.95;2.97;;;12.00;65.80;;;;;;4918136;29;20405;-87
2023/02/01 11:36:16;;;;;;;9.07;2.92;;;12.00;65.50;;;;;;4903291;29;20028;-88
2023/02/01 11:39:07;;;;;;;11.20;3.50;;;12.00;65.20;;;;;;4903489;29;20120;-87
2023/02/01 11:41:33;;;;;;;13.32;2.75;;;12.00;64.70;;;;;;4920456;29;20055;-87
2023/02/01 11:44:00;;;;;;;9.02;2.75;;;12.00;64.20;;;;;;4903367;29;20032;-88
2023/02/01 11:46:32;;;;;;;13.77;2.70;;;12.10;64.60;;;;;;4903573;29;20024;-87
2023/02/01 11:49:19;;;;;;;14.60;2.83;;;12.10;64.70;;;;;;4903735;29;20451;-87
2023/02/01 11:51:58;;;;;;;10.48;3.08;;;12.10;64.40;;;;;;4924702;29;20036;-88
2023/02/01 11:54:56;;;;;;;8.02;2.60;;;12.10;64.60;;;;;;4923185;29;20090;-88
2023/02/01 11:57:29;;;;;;;7.63;2.55;;;12.20;64.50;;;;;;4938835;29;20219;-87
2023/02/01 12:00:01;;;;;;;8.73;2.33;;;12.30;64.60;;;;;;4903060;29;20031;-89
2023/02/01 12:02:32;;;;;;;8.60;2.90;;;12.30;63.90;;;;;;4917657;29;20067;-88
2023/02/01 12:05:16;;;;;;;7.28;2.45;;;12.40;64.30;;;;;;4922509;29;20030;-89
2023/02/01 12:08:06;;;;;;;11.25;2.58;;;12.60;64.20;;;;;;4930692;29;20039;-87
2023/02/01 12:11:17;;;;;;;9.32;2.40;;;12.70;63.90;;;;;;4907232;29;20511;-88
2023/02/01 12:13:51;;;;;;;10.95;2.92;;;12.80;63.30;;;;;;4904267;29;20551;-88
2023/02/01 12:16:27;;;;;;;11.02;3.08;;;12.80;62.60;;;;;;4920114;29;20051;-88
2023/02/01 12:19:23;;;;;;;10.23;2.30;;;12.80;62.90;;;;;;4918918;29;20087;-88
2023/02/01 12:22:28;;;;;;;8.80;2.75;;;12.80;62.30;;;;;;4916932;29;20024;-88
2023/02/01 12:25:30;;;;;;;14.13;2.33;;;12.80;62.90;;;;;;4881479;29;20072;-89
2023/02/01 12:27:55;;;;;;;12.85;3.08;;;12.90;62.80;;;;;;4902836;29;20032;-90
2023/02/01 12:31:04;;;;;;;9.93;2.60;;;13.00;62.70;;;;;;4902789;29;20068;-89
2023/02/01 12:34:02;;;;;;;13.05;2.20;;;13.10;62.80;;;;;;4902773;29;20483;-88
2023/02/01 12:36:36;;;;;;;10.35;3.20;;;13.10;61.70;;;;;;4918447;29;20047;-89
2023/02/01 12:39:24;;;;;;;12.00;3.10;;;13.10;61.20;;;;;;4914997;29;20514;-88
2023/02/01 12:42:07;;;;;;;12.25;3.42;;;13.10;62.00;;;;;;4929590;29;20031;-88
2023/02/01 12:44:50;;;;;;;12.23;2.55;;;13.10;61.40;;;;;;4922483;29;20032;-88
2023/02/01 12:47:40;;;;;;;9.82;2.53;;;13.20;62.10;;;;;;4939257;29;20814;-88
2023/02/01 12:50:13;;;;;;;;;;;13.10;61.60;;;;;;4917807;29;20664;-89
2023/02/01 12:52:48;;;;;;;9.90;3.00;;;13.00;62.20;;;;;;4920327;29;19907;-88
2023/02/01 12:55:36;;;;;;;8.90;2.33;;;13.00;62.40;;;;;;4911516;29;20039;-89
2023/02/01 12:58:07;;;;;;;12.68;2.58;;;12.80;61.90;;;;;;4918386;29;20075;-89
2023/02/01 13:00:43;;;;;;;5.68;2.10;;;12.80;61.70;;;;;;4903137;29;20028;-87
2023/02/01 13:03:32;;;;;;;6.13;2.10;;;12.80;61.70;;;;;;4919560;29;20028;-89
2023/02/01 13:06:08;;;;;;;6.43;1.93;;;12.70;63.00;;;;;;4920412;29;20034;-87
2023/02/01 13:09:03;;;;;;;7.97;1.95;;;12.70;62.00;;;;;;4902381;29;20286;-88
2023/02/01 13:11:36;;;;;;;12.57;2.65;;;12.80;62.70;;;;;;4908269;29;20031;-87
2023/02/01 13:14:33;;;;;;;7.25;2.30;;;12.80;62.30;;;;;;4913915;29;20395;-86
2023/02/01 13:17:23;;;;;;;5.95;2.40;;;12.80;62.20;;;;;;4914671;29;20490;-78
2023/02/01 13:20:15;;;;;;;6.95;1.70;;;12.80;61.50;;;;;;4922545;29;20492;-79
2023/02/01 13:22:45;;;;;;;7.32;2.55;;;12.80;61.70;;;;;;4934429;29;20031;-79
2023/02/01 13:25:37;;;;;;;5.97;2.03;;;12.80;61.90;;;;;;4937227;29;20391;-79
2023/02/01 13:28:14;;;;;;;7.40;2.15;;;12.80;62.20;;;;;;4917729;29;20028;-79
2023/02/01 13:31:05;;;;;;;6.13;1.83;;;12.80;62.00;;;;;;4935024;29;20046;-79
2023/02/01 13:34:05;;;;;;;5.28;1.88;;;12.70;62.60;;;;;;4938836;29;20111;-79
2023/02/01 13:36:47;;;;;;;6.63;2.30;;;12.70;62.90;;;;;;4938107;29;20055;-79
2023/02/01 13:39:34;;;;;;;9.70;2.55;;;12.60;62.60;;;;;;4939706;29;20045;-78
2023/02/01 13:42:13;;;;;;;9.88;2.58;;;12.60;63.30;;;;;;4915161;29;20027;-78
2023/02/01 13:44:43;;;;;;;8.30;2.70;;;12.60;63.40;;;;;;4937841;29;20510;-79
2023/02/01 13:47:26;;;;;;;;;;;12.50;63.50;;;;;;4937829;29;20063;-78
2023/02/01 13:49:55;;;;;;;8.50;2.22;;;12.40;63.60;;;;;;4950005;29;19953;-78
2023/02/01 13:52:39;;;;;;;12.68;3.03;;;12.40;64.30;;;;;;4937718;29;20075;-78
2023/02/01 13:55:20;;;;;;;12.15;2.97;;;12.30;63.80;;;;;;4941134;29;20035;-78
2023/02/01 13:57:48;;;;;;;10.20;3.13;;;12.30;64.20;;;;;;4922767;29;20063;-78
2023/02/01 14:00:32;;;;;;;7.22;2.28;;;12.30;64.60;;;;;;4940750;29;20875;-79
2023/02/01 14:03:00;;;;;;;9.52;3.42;;;12.30;64.50;;;;;;4941043;29;20028;-79
2023/02/01 14:05:26;;;;;;;9.65;3.00;;;12.20;64.70;;;;;;4923880;29;20055;-78
2023/02/01 14:08:35;;;;;;;4.15;2.42;;;12.20;64.80;;;;;;4919332;29;20067;-79
2023/02/01 14:11:01;;;;;;;10.23;3.10;;;12.20;65.10;;;;;;4897945;29;20055;-79
2023/02/01 14:13:32;;;;;;;12.63;2.55;;;12.10;65.50;;;;;;4948980;29;20024;-78
2023/02/01 14:16:04;;;;;;;7.30;3.08;;;12.10;65.60;;;;;;4958039;29;20522;-79
2023/02/01 14:18:57;;;;;;;6.45;2.70;;;12.10;65.90;;;;;;4923086;29;20082;-79
2023/02/01 14:21:35;;;;;;;9.27;2.47;;;12.00;66.00;;;;;;4918689;29;20052;-79
2023/02/01 14:24:07;;;;;;;11.00;3.80;;;12.10;65.90;;;;;;4936494;29;20028;-79
2023/02/01 14:26:45;;;;;;;11.90;3.03;;;12.20;66.20;;;;;;4918048;29;20024;-84
2023/02/01 14:29:17;;;;;;;5.72;2.90;;;12.20;66.30;;;;;;4923541;29;20035;-79
2023/02/01 14:32:02;;;;;;;9.07;2.40;;;12.10;66.50;;;;;;4920337;29;20040;-79
2023/02/01 14:34:46;;;;;;;9.18;3.70;;;12.10;66.50;;;;;;4938740;29;20058;-79
2023/02/01 14:37:18;;;;;;;6.47;2.35;;;12.10;67.00;;;;;;4921498;29;20031;-79
2023/02/01 14:39:47;;;;;;;13.90;2.92;;;12.00;66.90;;;;;;4922021;29;20027;-78
2023/02/01 14:42:40;;;;;;;9.60;2.63;;;12.20;67.10;;;;;;4937697;29;20422;-78
2023/02/01 14:45:23;;;;;;;13.38;2.75;;;12.20;66.90;;;;;;4938060;29;20194;-78
2023/02/01 14:47:50;;;;;;;8.60;2.75;;;12.20;67.10;;;;;;4935560;29;20521;-78
2023/02/01 14:50:30;;;;;;;8.88;3.53;;;12.30;66.80;;;;;;4958932;29;20039;-78
2023/02/01 14:53:19;;;;;;;15.57;3.28;;;12.30;66.60;;;;;;4918049;29;20039;-80
2023/02/01 14:56:09;;;;;;;9.27;2.85;;;12.30;66.50;;;;;;4912539;29;20060;-77
2023/02/01 14:59:06;;;;;;;12.23;2.78;;;12.30;66.20;;;;;;4915778;29;20039;-78
2023/02/01 15:01:34;;;;;;;10.02;2.70;;;12.30;66.30;;;;;;4920527;29;20028;-78
2023/02/01 15:04:03;;;;;;;7.45;3.15;;;12.40;66.50;;;;;;4936004;29;20160;-78
2023/02/01 15:06:43;;;;;;;14.25;2.90;;;12.30;66.80;;;;;;4920514;29;20747;-78
2023/02/01 15:09:26;;;;;;;11.15;2.65;;;12.30;66.80;;;;;;4935799;29;20031;-78
2023/02/01 15:12:10;;;;;;;15.95;3.42;;;12.30;66.90;;;;;;4921059;29;20494;-79
2023/02/01 15:14:51;;;;;;;12.48;3.63;;;12.30;67.20;;;;;;4935091;29;20469;-78
2023/02/01 15:17:33;;;;;;;10.25;3.78;;;12.30;67.10;;;;;;4918917;29;20047;-78
2023/02/01 15:20:10;;;;;;;10.35;3.38;;;12.20;67.10;;;;;;4918313;29;20040;-78
2023/02/01 15:22:36;;;;;;;11.40;3.75;;;12.20;67.10;;;;;;4919243;29;20051;-78
2023/02/01 15:25:03;;;;;;;7.55;2.97;;;12.20;67.40;;;;;;4937085;29;20054;-78
2023/02/01 15:27:29;;;;;;;14.57;5.05;;;12.20;67.30;;;;;;4935500;29;20024;-78
2023/02/01 15:30:09;;;;;;;9.57;3.40;;;12.10;67.30;;;;;;4920005;29;20036;-78
2023/02/01 15:32:40;;;;;;;7.95;3.10;;;12.00;67.50;;;;;;4932624;29;20531;-78
2023/02/01 15:35:55;;;;;;;11.02;3.33;;;12.00;67.40;;;;;;4934542;29;20043;-78
2023/02/01 15:38:21;;;;;;;8.55;2.85;;;12.10;67.70;;;;;;4910212;29;20055;-80
2023/02/01 15:41:05;;;;;;;5.43;2.92;;;12.10;67.80;;;;;;4918693;29;20031;-80
2023/02/01 15:43:59;;;;;;;30.48;12.07;;;12.10;68.00;;;;;;4945807;29;20028;-78
2023/02/01 15:46:36;;;;;;;13.27;4.85;;;12.10;67.90;;;;;;4896958;29;20044;-77
2023/02/01 15:49:03;;;;;;;16.52;4.43;;;12.10;67.70;;;;;;4919673;29;20056;-77
2023/02/01 15:51:32;;;;;;;9.50;3.25;;;12.00;67.60;;;;;;4919656;29;20028;-77
2023/02/01 15:54:19;;;;;;;12.27;3.47;;;12.00;67.80;;;;;;4919630;29;20059;-77
2023/02/01 15:56:52;;;;;;;12.77;3.72;;;12.00;67.40;;;;;;4921134;29;20035;-80
2023/02/01 15:59:21;;;;;;;10.60;3.35;;;12.00;67.50;;;;;;4937950;29;20119;-80
2023/02/01 16:01:47;;;;;;;10.73;3.25;;;12.00;67.60;;;;;;4920581;29;20126;-77
2023/02/01 16:04:26;;;;;;;8.32;3.10;;;12.00;67.40;;;;;;4934817;29;20028;-80
2023/02/01 16:06:55;;;;;;;9.15;3.63;;;11.90;67.60;;;;;;4916600;29;20036;-78
2023/02/01 16:09:24;;;;;;;10.52;3.10;;;11.90;67.80;;;;;;4919396;29;20039;-78
2023/02/01 16:11:59;;;;;;;17.42;3.25;;;11.80;67.80;;;;;;4915863;29;20028;-78
2023/02/01 16:14:26;;;;;;;9.80;3.47;;;11.90;68.00;;;;;;4932062;29;20566;-79
2023/02/01 16:16:53;;;;;;;13.85;3.55;;;11.90;68.00;;;;;;4921237;29;20443;-79
2023/02/01 16:19:19;;;;;;;12.40;3.80;;;11.90;68.10;;;;;;4921156;29;20074;-79
2023/02/01 16:21:45;;;;;;;16.30;4.03;;;11.90;68.40;;;;;;4935788;29;20023;-79
2023/02/01 16:24:11;;;;;;;10.07;4.18;;;11.90;68.60;;;;;;4937518;29;20028;-79
2023/02/01 16:26:38;;;;;;;9.23;3.65;;;11.80;68.80;;;;;;4937402;29;20499;-79
2023/02/01 16:29:06;;;;;;;14.68;3.70;;;11.80;68.80;;;;;;4920037;29;20096;-79
2023/02/01 16:31:36;;;;;;;11.93;4.70;;;11.80;69.00;;;;;;4941851;29;20044;-78
2023/02/01 16:34:02;;;;;;;14.40;4.60;;;11.80;69.20;;;;;;4916303;29;20031;-78
2023/02/01 16:36:28;;;;;;;13.32;3.42;;;11.70;68.90;;;;;;4937077;29;20024;-79
2023/02/01 16:38:54;;;;;;;13.57;4.03;;;11.70;69.40;;;;;;4938094;29;20020;-78
2023/02/01 16:41:22;;;;;;;13.82;4.65;;;11.70;69.40;;;;;;4937704;29;20055;-78
2023/02/01 16:43:53;;;;;;;11.65;4.18;;;11.70;69.40;;;;;;4938349;29;20495;-84
2023/02/01 16:46:24;;;;;;;14.70;5.10;;;11.70;69.40;;;;;;4928602;29;20042;-84
2023/02/01 16:48:58;;;;;;;10.80;5.38;;;11.70;69.40;;;;;;4941108;29;20074;-80
2023/02/01 16:51:28;;;;;;;15.70;6.10;;;11.70;69.40;;;;;;4907267;29;20033;-87
2023/02/01 16:53:54;;;;;;;11.67;4.13;;;11.70;69.30;;;;;;4917428;29;20027;-84
2023/02/01 16:56:28;;;;;;;8.75;4.80;;;11.60;69.30;;;;;;4922678;29;20032;-82
2023/02/01 16:58:54;;;;;;;13.02;4.97;;;11.60;69.10;;;;;;4937877;29;20020;-82
2023/02/01 17:01:20;;;;;;;16.73;5.25;;;11.60;69.10;;;;;;4921115;29;20028;-84
2023/02/01 17:03:46;;;;;;;18.17;5.50;;;11.60;69.20;;;;;;4933821;29;20031;-83
2023/02/01 17:06:36;;;;;;;12.45;4.88;;;11.60;69.20;;;;;;4939489;29;20028;-83
2023/02/01 17:09:02;;;;;;;10.07;3.90;;;11.60;69.20;;;;;;4912998;29;20036;-79
2023/02/01 17:11:32;;;;;;;14.25;5.43;;;11.60;69.00;;;;;;4923415;29;20032;-80
2023/02/01 17:14:19;;;;;;;15.03;4.90;;;11.60;69.20;;;;;;4924380;29;20031;-85
2023/02/01 17:16:47;;;;;;;15.18;4.45;;;11.50;69.20;;;;;;4936522;29;21303;-85
2023/02/01 17:19:17;;;;;;;9.25;4.05;;;11.50;69.20;;;;;;4923807;29;20530;-83
2023/02/01 17:21:52;;;;;;;13.77;4.43;;;11.50;69.40;;;;;;4940110;29;20028;-83
2023/02/01 17:24:20;;;;;;;11.52;3.92;;;11.50;69.30;;;;;;4924482;29;20275;-84
2023/02/01 17:26:46;;;;;;;14.23;4.55;;;11.50;69.30;;;;;;4940918;29;20024;-83
2023/02/01 17:29:12;;;;;;;15.43;5.30;;;11.50;69.40;;;;;;4941719;29;20071;-86
2023/02/01 17:31:44;;;;;;;8.15;4.25;;;11.40;69.40;;;;;;4942052;29;20051;-85
2023/02/01 17:34:13;;;;;;;12.23;4.78;;;11.40;69.20;;;;;;4920458;29;20035;-85
2023/02/01 17:36:41;;;;;;;16.70;5.10;;;11.40;69.50;;;;;;4926538;29;20030;-82
2023/02/01 17:39:07;;;;;;;13.38;4.35;;;11.30;69.60;;;;;;4922723;29;20040;-83
2023/02/01 17:41:34;;;;;;;15.43;4.97;;;11.30;69.50;;;;;;4927063;29;20040;-83
2023/02/01 17:44:00;;;;;;;10.25;4.15;;;11.40;69.50;;;;;;4940503;29;20023;-84
2023/02/01 17:46:27;;;;;;;10.98;4.38;;;11.30;69.70;;;;;;4921937;29;20028;-85
2023/02/01 17:48:53;;;;;;;13.13;4.97;;;11.30;69.90;;;;;;4936613;29;20441;-83
2023/02/01 17:51:26;;;;;;;21.60;5.28;;;11.30;69.90;;;;;;4845877;29;20039;-83
2023/02/01 17:53:52;;;;;;;9.35;3.67;;;11.30;70.00;;;;;;4935125;29;20177;-82
2023/02/01 17:56:20;;;;;;;14.23;4.65;;;11.30;70.00;;;;;;4933587;29;20036;-83
2023/02/01 17:58:47;;;;;;;18.45;4.53;;;11.20;70.20;;;;;;4919088;29;20028;-83
2023/02/01 18:01:19;;;;;;;5.68;3.53;;;11.20;70.00;;;;;;4945914;29;20475;-83
2023/02/01 18:03:44;;;;;;;12.98;4.80;;;11.20;70.20;;;;;;4940427;29;20465;-84
2023/02/01 18:06:16;;;;;;;16.08;4.55;;;11.20;70.30;;;;;;4934836;29;20113;-84
2023/02/01 18:08:43;;;;;;;13.00;5.28;;;11.20;70.20;;;;;;4935997;29;20031;-85
2023/02/01 18:11:17;;;;;;;15.35;5.60;;;11.20;70.30;;;;;;4939276;29;20050;-85
2023/02/01 18:13:43;;;;;;;12.68;5.90;;;11.20;70.40;;;;;;4931665;29;20743;-85
2023/02/01 18:16:30;;;;;;;13.35;5.90;;;11.10;70.40;;;;;;4930705;29;20031;-83
2023/02/01 18:19:01;;;;;;;13.75;6.13;;;11.10;70.50;;;;;;4938746;29;20500;-84
2023/02/01 18:21:39;;;;;;;15.35;6.18;;;11.10;71.00;;;;;;4918834;29;20035;-82
2023/02/01 18:24:05;;;;;;;18.35;6.30;;;11.00;70.70;;;;;;4918670;29;20032;-83
2023/02/01 18:26:38;;;;;;;15.90;6.75;;;11.00;70.70;;;;;;4941214;29;20115;-78
2023/02/01 18:29:04;;;;;;;22.83;8.07;;;11.00;70.80;;;;;;4937425;29;20027;-79
2023/02/01 18:31:31;;;;;;;21.38;6.30;;;10.90;70.60;;;;;;4943540;29;20131;-80
2023/02/01 18:33:58;;;;;;;15.57;6.07;;;11.00;70.60;;;;;;4935215;29;20036;-81
2023/02/01 18:36:24;;;;;;;9.23;4.93;;;11.00;70.40;;;;;;4930493;29;20026;-79
2023/02/01 18:38:50;;;;;;;9.52;4.65;;;10.90;70.90;;;;;;4919602;29;20099;-80
2023/02/01 18:41:20;;;;;;;27.52;10.40;;;10.90;70.70;;;;;;4944751;29;20040;-79
2023/02/01 18:43:46;;;;;;;27.38;9.45;;;10.90;70.50;;;;;;4924850;29;20031;-78
2023/02/01 18:46:12;;;;;;;16.20;6.63;;;10.90;70.60;;;;;;4936644;29;20160;-83